sensor_id;sensor_type;location;lat;lon;timestamp;pressure;altitude;pressure_sealevel;temperature;humidity
68988;BME280;56038;46.080;11.116;2023-01-13T00:03:42;99846.41;;;2.93;75.48
68988;BME280;56038;46.080;11.116;2023-01-13T00:08:47;99848.97;;;2.81;76.07
68988;BME280;56038;46.080;11.116;2023-01-13T00:13:49;99842.09;;;2.82;76.23
68988;BME280;56038;46.080;11.116;2023-01-13T00:18:52;99836.09;;;2.81;76.35
68988;BME280;56038;46.080;11.116;2023-01-13T00:23:54;99848.13;;;2.78;76.36
68988;BME280;56038;46.080;11.116;2023-01-13T00:28:56;99829.22;;;2.65;76.63
68988;BME280;56038;46.080;11.116;2023-01-13T00:34:00;99833.53;;;2.66;76.78
68988;BME280;56038;46.080;11.116;2023-01-13T00:39:02;99834.38;;;2.63;76.75
68988;BME280;56038;46.080;11.116;2023-01-13T00:44:03;99837.84;;;2.61;77.15
68988;BME280;56038;46.080;11.116;2023-01-13T00:49:07;99839.53;;;2.63;77.27
68988;BME280;56038;46.080;11.116;2023-01-13T00:54:08;99845.59;;;2.68;77.62
68988;BME280;56038;46.080;11.116;2023-01-13T00:59:11;99842.97;;;2.67;77.21
68988;BME280;56038;46.080;11.116;2023-01-13T01:04:15;99832.69;;;2.70;77.18
68988;BME280;56038;46.080;11.116;2023-01-13T01:09:17;99826.66;;;2.73;76.71
68988;BME280;56038;46.080;11.116;2023-01-13T01:14:19;99828.38;;;2.74;76.39
68988;BME280;56038;46.080;11.116;2023-01-13T01:19:22;99821.50;;;2.74;76.29
68988;BME280;56038;46.080;11.116;2023-01-13T01:24:24;99812.91;;;2.64;76.66
68988;BME280;56038;46.080;11.116;2023-01-13T01:29:25;99815.47;;;2.66;76.70
68988;BME280;56038;46.080;11.116;2023-01-13T01:34:29;99801.72;;;2.67;76.62
68988;BME280;56038;46.080;11.116;2023-01-13T01:39:30;99785.38;;;2.63;76.58
68988;BME280;56038;46.080;11.116;2023-01-13T01:44:59;99793.13;;;2.60;76.69
68988;BME280;56038;46.080;11.116;2023-01-13T01:50:03;99787.97;;;2.59;76.92
68988;BME280;56038;46.080;11.116;2023-01-13T01:55:08;99772.53;;;2.57;76.95
68988;BME280;56038;46.080;11.116;2023-01-13T02:00:11;99760.50;;;2.55;77.04
68988;BME280;56038;46.080;11.116;2023-01-13T02:05:16;99757.91;;;2.49;77.08
68988;BME280;56038;46.080;11.116;2023-01-13T02:10:21;99750.19;;;2.55;76.89
68988;BME280;56038;46.080;11.116;2023-01-13T02:15:29;99751.91;;;2.53;77.04
68988;BME280;56038;46.080;11.116;2023-01-13T02:20:53;99744.16;;;2.48;77.32
68988;BME280;56038;46.080;11.116;2023-01-13T02:26:15;99741.59;;;2.40;77.32
68988;BME280;56038;46.080;11.116;2023-01-13T02:31:25;99741.59;;;2.28;77.85
68988;BME280;56038;46.080;11.116;2023-01-13T02:36:49;99730.44;;;2.25;78.16
68988;BME280;56038;46.080;11.116;2023-01-13T02:41:56;99727.03;;;2.09;79.00
68988;BME280;56038;46.080;11.116;2023-01-13T02:47:21;99732.16;;;2.01;78.74
68988;BME280;56038;46.080;11.116;2023-01-13T02:52:27;99724.44;;;1.97;78.75
68988;BME280;56038;46.080;11.116;2023-01-13T02:57:31;99721.84;;;2.03;79.04
68988;BME280;56038;46.080;11.116;2023-01-13T03:02:36;99719.28;;;2.00;78.76
68988;BME280;56038;46.080;11.116;2023-01-13T03:07:52;99715.84;;;1.98;79.24
68988;BME280;56038;46.080;11.116;2023-01-13T03:13:03;99723.59;;;2.05;79.12
68988;BME280;56038;46.080;11.116;2023-01-13T03:18:16;99713.28;;;2.01;78.55
68988;BME280;56038;46.080;11.116;2023-01-13T03:23:27;99721.00;;;2.04;78.29
68988;BME280;56038;46.080;11.116;2023-01-13T03:28:34;99716.69;;;2.03;78.23
68988;BME280;56038;46.080;11.116;2023-01-13T03:33:42;99715.84;;;2.01;78.68
68988;BME280;56038;46.080;11.116;2023-01-13T03:38:50;99713.25;;;2.02;78.72
68988;BME280;56038;46.080;11.116;2023-01-13T03:43:58;99711.56;;;1.98;78.59
68988;BME280;56038;46.080;11.116;2023-01-13T03:49:23;99709.00;;;1.92;78.76
68988;BME280;56038;46.080;11.116;2023-01-13T03:54:26;99712.44;;;1.90;79.45
68988;BME280;56038;46.080;11.116;2023-01-13T03:59:30;99697.81;;;1.87;78.88
68988;BME280;56038;46.080;11.116;2023-01-13T04:04:39;99712.41;;;1.99;78.73
68988;BME280;56038;46.080;11.116;2023-01-13T04:09:48;99713.28;;;1.93;78.82
68988;BME280;56038;46.080;11.116;2023-01-13T04:14:51;99723.59;;;1.95;78.31
68988;BME280;56038;46.080;11.116;2023-01-13T04:19:55;99724.44;;;1.95;78.37
68988;BME280;56038;46.080;11.116;2023-01-13T04:24:57;99712.44;;;1.93;78.49
68988;BME280;56038;46.080;11.116;2023-01-13T04:29:58;99709.00;;;1.91;78.40
68988;BME280;56038;46.080;11.116;2023-01-13T04:35:02;99711.56;;;1.85;78.51
68988;BME280;56038;46.080;11.116;2023-01-13T04:40:06;99723.59;;;1.75;78.66
68988;BME280;56038;46.080;11.116;2023-01-13T04:45:09;99723.56;;;1.72;79.21
68988;BME280;56038;46.080;11.116;2023-01-13T04:50:12;99732.16;;;1.74;78.86
68988;BME280;56038;46.080;11.116;2023-01-13T04:55:14;99741.59;;;1.75;79.28
68988;BME280;56038;46.080;11.116;2023-01-13T05:00:18;99728.72;;;1.81;79.04
68988;BME280;56038;46.080;11.116;2023-01-13T05:05:26;99738.19;;;1.79;79.07
68988;BME280;56038;46.080;11.116;2023-01-13T05:10:30;99726.13;;;1.73;78.94
68988;BME280;56038;46.080;11.116;2023-01-13T05:15:32;99724.44;;;1.83;79.15
68988;BME280;56038;46.080;11.116;2023-01-13T05:20:52;99719.25;;;1.72;78.93
68988;BME280;56038;46.080;11.116;2023-01-13T05:25:54;99727.84;;;1.68;78.96
68988;BME280;56038;46.080;11.116;2023-01-13T05:30:56;99729.59;;;1.75;79.13
68988;BME280;56038;46.080;11.116;2023-01-13T05:36:01;99724.44;;;1.78;78.91
68988;BME280;56038;46.080;11.116;2023-01-13T05:41:03;99736.47;;;1.79;79.00
68988;BME280;56038;46.080;11.116;2023-01-13T05:46:22;99727.88;;;1.82;79.15
68988;BME280;56038;46.080;11.116;2023-01-13T05:51:25;99730.44;;;1.82;79.01
68988;BME280;56038;46.080;11.116;2023-01-13T05:56:27;99723.56;;;1.86;78.87
68988;BME280;56038;46.080;11.116;2023-01-13T06:01:28;99719.31;;;1.91;78.29
68988;BME280;56038;46.080;11.116;2023-01-13T06:06:32;99716.72;;;1.94;78.53
68988;BME280;56038;46.080;11.116;2023-01-13T06:11:33;99723.59;;;1.96;78.11
68988;BME280;56038;46.080;11.116;2023-01-13T06:16:35;99717.59;;;1.90;78.24
68988;BME280;56038;46.080;11.116;2023-01-13T06:21:39;99732.16;;;1.86;78.87
68988;BME280;56038;46.080;11.116;2023-01-13T06:26:41;99729.59;;;1.91;78.96
68988;BME280;56038;46.080;11.116;2023-01-13T06:31:43;99729.59;;;1.85;78.48
68988;BME280;56038;46.080;11.116;2023-01-13T06:36:48;99730.47;;;1.94;78.49
68988;BME280;56038;46.080;11.116;2023-01-13T06:41:53;99738.19;;;1.96;78.46
68988;BME280;56038;46.080;11.116;2023-01-13T06:47:12;99721.88;;;1.98;78.33
68988;BME280;56038;46.080;11.116;2023-01-13T06:52:15;99733.88;;;1.99;77.97
68988;BME280;56038;46.080;11.116;2023-01-13T06:57:17;99741.59;;;2.04;78.12
68988;BME280;56038;46.080;11.116;2023-01-13T07:02:19;99741.59;;;2.01;78.11
68988;BME280;56038;46.080;11.116;2023-01-13T07:07:22;99746.75;;;1.99;78.16
68988;BME280;56038;46.080;11.116;2023-01-13T07:12:24;99757.06;;;2.01;78.08
68988;BME280;56038;46.080;11.116;2023-01-13T07:17:25;99753.66;;;2.06;78.09
68988;BME280;56038;46.080;11.116;2023-01-13T07:22:28;99761.38;;;2.09;77.57
68988;BME280;56038;46.080;11.116;2023-01-13T07:27:30;99757.09;;;2.05;77.11
68988;BME280;56038;46.080;11.116;2023-01-13T07:32:32;99763.09;;;2.17;77.31
68988;BME280;56038;46.080;11.116;2023-01-13T07:37:36;99758.78;;;2.14;77.19
68988;BME280;56038;46.080;11.116;2023-01-13T07:42:39;99752.78;;;2.00;77.83
68988;BME280;56038;46.080;11.116;2023-01-13T07:47:58;99752.78;;;2.14;77.45
68988;BME280;56038;46.080;11.116;2023-01-13T07:53:01;99746.75;;;2.19;77.11
68988;BME280;56038;46.080;11.116;2023-01-13T07:58:03;99750.19;;;2.35;76.83
68988;BME280;56038;46.080;11.116;2023-01-13T08:03:05;99755.34;;;2.55;76.37
68988;BME280;56038;46.080;11.116;2023-01-13T08:08:08;99750.13;;;2.76;76.15
68988;BME280;56038;46.080;11.116;2023-01-13T08:13:11;99750.91;;;2.95;78.16
68988;BME280;56038;46.080;11.116;2023-01-13T08:18:21;99755.22;;;2.97;75.40
68988;BME280;56038;46.080;11.116;2023-01-13T08:23:24;99744.88;;;3.07;74.49
68988;BME280;56038;46.080;11.116;2023-01-13T08:28:26;99748.28;;;3.18;73.82
68988;BME280;56038;46.080;11.116;2023-01-13T08:33:28;99754.22;;;3.30;74.00
68988;BME280;56038;46.080;11.116;2023-01-13T08:38:32;99760.31;;;3.13;73.46
68988;BME280;56038;46.080;11.116;2023-01-13T08:43:34;99745.63;;;3.28;73.76
68988;BME280;56038;46.080;11.116;2023-01-13T08:48:36;99754.16;;;3.44;73.35
68988;BME280;56038;46.080;11.116;2023-01-13T08:53:39;99745.53;;;3.44;72.74
68988;BME280;56038;46.080;11.116;2023-01-13T08:58:40;99742.91;;;3.53;72.73
68988;BME280;56038;46.080;11.116;2023-01-13T09:03:42;99747.16;;;3.65;72.72
68988;BME280;56038;46.080;11.116;2023-01-13T09:08:45;99754.88;;;3.71;71.94
68988;BME280;56038;46.080;11.116;2023-01-13T09:13:48;99758.28;;;3.79;71.45
68988;BME280;56038;46.080;11.116;2023-01-13T09:18:49;99761.72;;;3.76;71.95
68988;BME280;56038;46.080;11.116;2023-01-13T09:23:53;99764.19;;;3.93;71.00
68988;BME280;56038;46.080;11.116;2023-01-13T09:28:54;99759.75;;;4.09;70.64
68988;BME280;56038;46.080;11.116;2023-01-13T09:33:56;99767.59;;;4.01;70.88
68988;BME280;56038;46.080;11.116;2023-01-13T09:39:17;99776.19;;;4.03;70.86
68988;BME280;56038;46.080;11.116;2023-01-13T09:44:23;99773.56;;;4.06;70.83
68988;BME280;56038;46.080;11.116;2023-01-13T09:49:31;99776.09;;;4.15;70.21
68988;BME280;56038;46.080;11.116;2023-01-13T09:54:38;99756.38;;;4.02;70.00
68988;BME280;56038;46.080;11.116;2023-01-13T09:59:42;99763.97;;;4.20;69.83
68988;BME280;56038;46.080;11.116;2023-01-13T10:05:09;99759.63;;;4.26;69.15
68988;BME280;56038;46.080;11.116;2023-01-13T10:10:14;99741.44;;;4.36;69.00
68988;BME280;56038;46.080;11.116;2023-01-13T10:15:20;99723.28;;;4.44;67.85
68988;BME280;56038;46.080;11.116;2023-01-13T10:20:29;99714.63;;;4.46;68.13
68988;BME280;56038;46.080;11.116;2023-01-13T10:25:46;99707.75;;;4.44;67.58
68988;BME280;56038;46.080;11.116;2023-01-13T10:30:52;99703.97;;;4.72;67.53
68988;BME280;56038;46.080;11.116;2023-01-13T10:35:58;99691.06;;;4.71;66.78
68988;BME280;56038;46.080;11.116;2023-01-13T10:41:04;99678.78;;;4.90;66.45
68988;BME280;56038;46.080;11.116;2023-01-13T10:46:10;99676.34;;;4.76;65.95
68988;BME280;56038;46.080;11.116;2023-01-13T10:51:22;99664.16;;;4.84;66.11
68988;BME280;56038;46.080;11.116;2023-01-13T10:56:28;99657.56;;;5.26;64.93
68988;BME280;56038;46.080;11.116;2023-01-13T11:01:31;99662.44;;;5.48;63.74
68988;BME280;56038;46.080;11.116;2023-01-13T11:06:33;99664.97;;;5.54;64.07
68988;BME280;56038;46.080;11.116;2023-01-13T11:11:40;99654.38;;;5.66;63.69
68988;BME280;56038;46.080;11.116;2023-01-13T11:16:45;99643.09;;;5.71;62.92
68988;BME280;56038;46.080;11.116;2023-01-13T11:21:54;99635.25;;;5.75;63.23
68988;BME280;56038;46.080;11.116;2023-01-13T11:27:02;99617.97;;;5.75;63.15
68988;BME280;56038;46.080;11.116;2023-01-13T11:32:09;99620.59;;;5.72;63.08
68988;BME280;56038;46.080;11.116;2023-01-13T11:37:17;99627.59;;;5.68;63.97
68988;BME280;56038;46.080;11.116;2023-01-13T11:42:27;99605.16;;;5.64;63.55
68988;BME280;56038;46.080;11.116;2023-01-13T11:47:31;99614.69;;;5.64;63.79
68988;BME280;56038;46.080;11.116;2023-01-13T11:58:27;99594.03;;;5.59;64.09
68988;BME280;56038;46.080;11.116;2023-01-13T12:03:37;99579.06;;;5.77;64.06
68988;BME280;56038;46.080;11.116;2023-01-13T12:08:53;99570.28;;;5.84;63.80
68988;BME280;56038;46.080;11.116;2023-01-13T12:14:10;99580.72;;;5.81;63.49
68988;BME280;56038;46.080;11.116;2023-01-13T12:19:23;99571.94;;;5.89;63.40
68988;BME280;56038;46.080;11.116;2023-01-13T12:24:29;99565.88;;;6.37;61.59
68988;BME280;56038;46.080;11.116;2023-01-13T12:29:35;99550.53;;;8.41;54.84
68988;BME280;56038;46.080;11.116;2023-01-13T12:34:47;99528.19;;;9.72;50.59
68988;BME280;56038;46.080;11.116;2023-01-13T12:39:59;99524.91;;;10.86;46.83
68988;BME280;56038;46.080;11.116;2023-01-13T12:45:21;99513.00;;;11.44;46.93
68988;BME280;56038;46.080;11.116;2023-01-13T12:50:38;99512.84;;;11.27;45.33
68988;BME280;56038;46.080;11.116;2023-01-13T12:55:40;99504.47;;;11.81;43.88
68988;BME280;56038;46.080;11.116;2023-01-13T13:00:57;99497.00;;;11.72;43.95
68988;BME280;56038;46.080;11.116;2023-01-13T13:06:08;99486.53;;;11.92;42.95
68988;BME280;56038;46.080;11.116;2023-01-13T13:11:20;99485.22;;;12.03;43.59
68988;BME280;56038;46.080;11.116;2023-01-13T13:16:51;99468.53;;;12.05;42.81
68988;BME280;56038;46.080;11.116;2023-01-13T13:22:14;99460.16;;;11.97;42.36
68988;BME280;56038;46.080;11.116;2023-01-13T13:27:21;99470.25;;;12.25;42.06
68988;BME280;56038;46.080;11.116;2023-01-13T13:38:01;99475.16;;;11.73;42.33
68988;BME280;56038;46.080;11.116;2023-01-13T13:43:27;99463.50;;;11.80;42.26
68988;BME280;56038;46.080;11.116;2023-01-13T13:49:04;99452.16;;;10.06;45.89
68988;BME280;56038;46.080;11.116;2023-01-13T13:54:09;99436.25;;;8.89;49.29
68988;BME280;56038;46.080;11.116;2023-01-13T13:59:15;99429.63;;;8.22;50.50
68988;BME280;56038;46.080;11.116;2023-01-13T14:04:21;99435.44;;;7.69;52.55
68988;BME280;56038;46.080;11.116;2023-01-13T14:09:26;99439.13;;;7.30;53.91
68988;BME280;56038;46.080;11.116;2023-01-13T14:14:29;99448.56;;;6.98;54.80
68988;BME280;56038;46.080;11.116;2023-01-13T14:19:34;99448.53;;;6.63;56.09
68988;BME280;56038;46.080;11.116;2023-01-13T14:24:44;99453.16;;;6.50;57.12
68988;BME280;56038;46.080;11.116;2023-01-13T14:29:46;99449.22;;;6.32;57.74
68988;BME280;56038;46.080;11.116;2023-01-13T14:34:49;99434.91;;;5.71;59.40
68988;BME280;56038;46.080;11.116;2023-01-13T14:39:52;99420.09;;;5.76;58.98
68988;BME280;56038;46.080;11.116;2023-01-13T14:44:54;99409.06;;;5.66;59.95
68988;BME280;56038;46.080;11.116;2023-01-13T14:50:00;99415.25;;;5.59;61.03
68988;BME280;56038;46.080;11.116;2023-01-13T14:55:28;99417.97;;;5.52;61.91
68988;BME280;56038;46.080;11.116;2023-01-13T15:00:30;99427.78;;;5.37;62.38
68988;BME280;56038;46.080;11.116;2023-01-13T15:05:41;99450.31;;;5.31;62.33
68988;BME280;56038;46.080;11.116;2023-01-13T15:10:52;99442.84;;;5.14;63.12
68988;BME280;56038;46.080;11.116;2023-01-13T15:15:56;99445.56;;;5.06;62.80
68988;BME280;56038;46.080;11.116;2023-01-13T15:21:00;99441.44;;;4.95;62.17
68988;BME280;56038;46.080;11.116;2023-01-13T15:26:02;99446.81;;;4.82;64.38
68988;BME280;56038;46.080;11.116;2023-01-13T15:31:04;99461.53;;;4.79;64.63
68988;BME280;56038;46.080;11.116;2023-01-13T15:36:18;99451.25;;;4.73;65.09
68988;BME280;56038;46.080;11.116;2023-01-13T15:41:20;99449.69;;;4.64;65.32
68988;BME280;56038;46.080;11.116;2023-01-13T15:46:36;99460.22;;;4.50;64.43
68988;BME280;56038;46.080;11.116;2023-01-13T15:51:39;99475.03;;;4.39;64.44
68988;BME280;56038;46.080;11.116;2023-01-13T15:56:41;99476.81;;;4.34;65.31
68988;BME280;56038;46.080;11.116;2023-01-13T16:01:43;99478.53;;;4.35;65.46
68988;BME280;56038;46.080;11.116;2023-01-13T16:06:47;99466.72;;;4.17;66.98
68988;BME280;56038;46.080;11.116;2023-01-13T16:11:49;99500.34;;;4.14;67.09
68988;BME280;56038;46.080;11.116;2023-01-13T16:16:50;99498.63;;;4.15;66.59
68988;BME280;56038;46.080;11.116;2023-01-13T16:21:55;99498.69;;;4.07;67.96
68988;BME280;56038;46.080;11.116;2023-01-13T16:26:59;99508.25;;;4.02;67.83
68988;BME280;56038;46.080;11.116;2023-01-13T16:32:00;99511.84;;;3.89;67.91
68988;BME280;56038;46.080;11.116;2023-01-13T16:37:05;99520.53;;;3.82;68.78
68988;BME280;56038;46.080;11.116;2023-01-13T16:42:07;99528.34;;;3.76;68.30
68988;BME280;56038;46.080;11.116;2023-01-13T16:47:12;99532.66;;;3.74;68.34
68988;BME280;56038;46.080;11.116;2023-01-13T16:52:16;99536.13;;;3.73;68.91
68988;BME280;56038;46.080;11.116;2023-01-13T16:57:17;99533.66;;;3.60;71.22
68988;BME280;56038;46.080;11.116;2023-01-13T17:02:19;99544.84;;;3.59;70.50
68988;BME280;56038;46.080;11.116;2023-01-13T17:07:22;99552.66;;;3.55;70.40
68988;BME280;56038;46.080;11.116;2023-01-13T17:12:24;99571.75;;;3.36;70.51
68988;BME280;56038;46.080;11.116;2023-01-13T17:17:26;99584.75;;;3.22;70.96
68988;BME280;56038;46.080;11.116;2023-01-13T17:22:30;99576.22;;;3.11;71.74
68988;BME280;56038;46.080;11.116;2023-01-13T17:27:31;99565.94;;;3.08;71.92
68988;BME280;56038;46.080;11.116;2023-01-13T17:32:33;99566.00;;;2.97;72.38
68988;BME280;56038;46.080;11.116;2023-01-13T17:37:36;99576.25;;;3.08;72.24
68988;BME280;56038;46.080;11.116;2023-01-13T17:42:38;99570.19;;;3.18;72.35
68988;BME280;56038;46.080;11.116;2023-01-13T17:47:40;99598.63;;;3.09;72.58
68988;BME280;56038;46.080;11.116;2023-01-13T17:52:43;99608.16;;;3.00;73.18
68988;BME280;56038;46.080;11.116;2023-01-13T17:57:45;99624.53;;;2.90;73.70
68988;BME280;56038;46.080;11.116;2023-01-13T18:02:46;99634.00;;;2.84;73.58
68988;BME280;56038;46.080;11.116;2023-01-13T18:07:50;99647.78;;;2.81;73.56
68988;BME280;56038;46.080;11.116;2023-01-13T18:12:51;99658.97;;;2.80;74.11
68988;BME280;56038;46.080;11.116;2023-01-13T18:17:53;99662.44;;;2.76;74.03
68988;BME280;56038;46.080;11.116;2023-01-13T18:22:56;99686.50;;;2.77;73.97
68988;BME280;56038;46.080;11.116;2023-01-13T18:28:15;99700.31;;;2.59;75.31
68988;BME280;56038;46.080;11.116;2023-01-13T18:33:17;99697.75;;;2.56;75.12
68988;BME280;56038;46.080;11.116;2023-01-13T18:38:20;99731.28;;;2.47;75.65
68988;BME280;56038;46.080;11.116;2023-01-13T18:43:22;99736.41;;;2.59;75.07
68988;BME280;56038;46.080;11.116;2023-01-13T18:48:24;99737.28;;;2.53;75.08
68988;BME280;56038;46.080;11.116;2023-01-13T18:53:27;99729.53;;;2.52;75.36
68988;BME280;56038;46.080;11.116;2023-01-13T18:58:29;99726.97;;;2.47;75.35
68988;BME280;56038;46.080;11.116;2023-01-13T19:03:32;99724.41;;;2.33;75.85
68988;BME280;56038;46.080;11.116;2023-01-13T19:08:35;99726.13;;;2.40;75.94
68988;BME280;56038;46.080;11.116;2023-01-13T19:13:37;99726.13;;;2.40;75.65
68988;BME280;56038;46.080;11.116;2023-01-13T19:18:39;99736.47;;;2.28;75.91
68988;BME280;56038;46.080;11.116;2023-01-13T19:23:42;99726.13;;;2.31;76.08
68988;BME280;56038;46.080;11.116;2023-01-13T19:28:43;99734.75;;;2.24;76.07
68988;BME280;56038;46.080;11.116;2023-01-13T19:33:45;99747.63;;;2.18;76.05
68988;BME280;56038;46.080;11.116;2023-01-13T19:38:48;99744.19;;;2.08;76.38
68988;BME280;56038;46.080;11.116;2023-01-13T19:43:50;99755.34;;;1.94;77.16
68988;BME280;56038;46.080;11.116;2023-01-13T19:49:09;99758.78;;;1.99;76.88
68988;BME280;56038;46.080;11.116;2023-01-13T19:54:13;99746.78;;;1.92;77.31
68988;BME280;56038;46.080;11.116;2023-01-13T19:59:14;99762.22;;;1.79;77.77
68988;BME280;56038;46.080;11.116;2023-01-13T20:04:21;99760.47;;;1.68;78.51
68988;BME280;56038;46.080;11.116;2023-01-13T20:09:30;99751.88;;;1.64;78.94
68988;BME280;56038;46.080;11.116;2023-01-13T20:14:32;99751.03;;;1.62;78.77
68988;BME280;56038;46.080;11.116;2023-01-13T20:19:33;99767.34;;;1.64;78.55
68988;BME280;56038;46.080;11.116;2023-01-13T20:24:37;99769.03;;;1.67;78.70
68988;BME280;56038;46.080;11.116;2023-01-13T20:29:39;99756.19;;;1.74;77.58
68988;BME280;56038;46.080;11.116;2023-01-13T20:34:43;99763.91;;;1.80;77.84
68988;BME280;56038;46.080;11.116;2023-01-13T20:39:46;99750.19;;;1.75;77.72
68988;BME280;56038;46.080;11.116;2023-01-13T20:44:49;99755.31;;;1.62;78.25
68988;BME280;56038;46.080;11.116;2023-01-13T20:49:51;99763.91;;;1.65;78.12
68988;BME280;56038;46.080;11.116;2023-01-13T20:54:54;99759.56;;;1.43;79.29
68988;BME280;56038;46.080;11.116;2023-01-13T20:59:56;99757.84;;;1.43;79.16
68988;BME280;56038;46.080;11.116;2023-01-13T21:04:58;99768.09;;;1.40;79.00
68988;BME280;56038;46.080;11.116;2023-01-13T21:10:01;99773.25;;;1.39;79.50
68988;BME280;56038;46.080;11.116;2023-01-13T21:15:03;99772.34;;;1.23;79.87
68988;BME280;56038;46.080;11.116;2023-01-13T21:20:17;99772.38;;;1.34;79.42
68988;BME280;56038;46.080;11.116;2023-01-13T21:25:20;99770.66;;;1.30;79.62
68988;BME280;56038;46.080;11.116;2023-01-13T21:30:22;99777.50;;;1.25;79.78
68988;BME280;56038;46.080;11.116;2023-01-13T21:35:24;99774.91;;;1.17;80.16
68988;BME280;56038;46.080;11.116;2023-01-13T21:40:27;99786.06;;;1.20;79.54
68988;BME280;56038;46.080;11.116;2023-01-13T21:45:29;99780.06;;;1.20;79.70
68988;BME280;56038;46.080;11.116;2023-01-13T21:50:48;99786.09;;;1.27;79.66
68988;BME280;56038;46.080;11.116;2023-01-13T21:55:51;99783.47;;;1.19;79.69
68988;BME280;56038;46.080;11.116;2023-01-13T22:00:53;99790.34;;;1.14;80.82
68988;BME280;56038;46.080;11.116;2023-01-13T22:05:55;99794.53;;;0.97;80.74
68988;BME280;56038;46.080;11.116;2023-01-13T22:11:01;99799.63;;;0.92;81.08
68988;BME280;56038;46.080;11.116;2023-01-13T22:16:03;99813.41;;;0.97;79.94
68988;BME280;56038;46.080;11.116;2023-01-13T22:21:05;99810.84;;;1.06;80.05
68988;BME280;56038;46.080;11.116;2023-01-13T22:26:08;99821.97;;;0.99;80.33
68988;BME280;56038;46.080;11.116;2023-01-13T22:31:12;99815.88;;;0.80;80.59
68988;BME280;56038;46.080;11.116;2023-01-13T22:36:14;99818.47;;;0.85;80.09
68988;BME280;56038;46.080;11.116;2023-01-13T22:41:17;99842.38;;;0.76;80.24
68988;BME280;56038;46.080;11.116;2023-01-13T22:46:19;99847.41;;;0.59;81.48
68988;BME280;56038;46.080;11.116;2023-01-13T22:51:22;99851.69;;;0.59;81.58
68988;BME280;56038;46.080;11.116;2023-01-13T22:56:27;99850.84;;;0.62;81.62
68988;BME280;56038;46.080;11.116;2023-01-13T23:01:31;99842.22;;;0.50;81.13
68988;BME280;56038;46.080;11.116;2023-01-13T23:06:33;99837.94;;;0.51;81.13
68988;BME280;56038;46.080;11.116;2023-01-13T23:11:36;99834.53;;;0.53;81.55
68988;BME280;56038;46.080;11.116;2023-01-13T23:16:39;99843.09;;;0.55;81.43
68988;BME280;56038;46.080;11.116;2023-01-13T23:21:41;99851.59;;;0.45;82.16
68988;BME280;56038;46.080;11.116;2023-01-13T23:26:44;99854.13;;;0.42;82.16
68988;BME280;56038;46.080;11.116;2023-01-13T23:31:46;99854.13;;;0.39;81.56
68988;BME280;56038;46.080;11.116;2023-01-13T23:36:47;99865.31;;;0.47;81.65
68988;BME280;56038;46.080;11.116;2023-01-13T23:41:51;99864.44;;;0.45;81.61
68988;BME280;56038;46.080;11.116;2023-01-13T23:46:53;99865.31;;;0.47;81.31
68988;BME280;56038;46.080;11.116;2023-01-13T23:51:55;99870.41;;;0.44;81.63
68988;BME280;56038;46.080;11.116;2023-01-13T23:56:58;99878.91;;;0.34;82.17
